Time;durP1;ratioP1;P1;durP2;ratioP2;P2;SDS_P1;SDS_P2;PMS_P1;PMS_P2;Temp;Humidity;BMP_temperature;BMP_pressure;BME280_temperature;BME280_humidity;BME280_pressure;Samples;Min_cycle;Max_cycle;Signal;HPM_P1;HPM_P2
2022/05/20 00:01:27;;;;;;;;;;;15.60;46.50;;;;;;5089300;28;19955;-56
2022/05/20 00:03:53;;;;;;;;;;;15.60;46.50;;;;;;5087956;28;19939;-56
2022/05/20 00:06:18;;;;;;;;;;;15.60;46.60;;;;;;5088111;28;19987;-56
2022/05/20 00:08:44;;;;;;;;;;;15.60;46.50;;;;;;5090017;28;19919;-55
2022/05/20 00:11:10;;;;;;;;;;;15.50;46.40;;;;;;5090163;28;19915;-55
2022/05/20 00:13:35;;;;;;;;;;;15.50;46.40;;;;;;5085665;28;19916;-56
2022/05/20 00:16:01;;;;;;;;;;;15.50;46.40;;;;;;5089703;28;19915;-56
2022/05/20 00:18:27;;;;;;;;;;;15.40;46.40;;;;;;5088321;28;19908;-56
2022/05/20 00:20:53;;;;;;;;;;;15.40;46.40;;;;;;5089536;28;20007;-56
2022/05/20 00:23:19;;;;;;;;;;;15.40;46.40;;;;;;5089812;28;19907;-56
2022/05/20 00:25:48;;;;;;;;;;;15.40;46.50;;;;;;5089698;28;20425;-56
2022/05/20 00:28:15;;;;;;;;;;;15.40;46.50;;;;;;5088517;28;19923;-54
2022/05/20 00:30:41;;;;;;;;;;;15.40;46.60;;;;;;5088885;28;19942;-56
2022/05/20 00:33:06;;;;;;;;;;;15.40;46.50;;;;;;5089832;28;19908;-56
2022/05/20 00:35:32;;;;;;;;;;;15.30;46.40;;;;;;5088187;28;19915;-56
2022/05/20 00:37:58;;;;;;;;;;;15.30;46.40;;;;;;5089536;28;19908;-56
2022/05/20 00:40:25;;;;;;;;;;;15.30;46.40;;;;;;5088996;28;19908;-56
2022/05/20 00:42:51;;;;;;;;;;;15.30;46.50;;;;;;5089434;28;20010;-56
2022/05/20 00:45:17;;;;;;;;;;;15.20;46.40;;;;;;5088323;28;20006;-56
2022/05/20 00:47:43;;;;;;;;;;;15.20;46.50;;;;;;5085001;28;19934;-56
2022/05/20 00:50:11;;;;;;;;;;;15.20;46.50;;;;;;5089535;28;20007;-56
2022/05/20 00:52:37;;;;;;;;;;;15.20;46.50;;;;;;5089506;28;20734;-56
2022/05/20 00:55:10;;;;;;;;;;;15.20;46.50;;;;;;5089844;28;20252;-56
2022/05/20 00:57:42;;;;;;;;;;;15.10;46.50;;;;;;5090536;28;19943;-56
2022/05/20 01:00:13;;;;;;;;;;;15.10;46.60;;;;;;5089378;28;19908;-56
2022/05/20 01:02:39;;;;;;;;;;;15.10;46.70;;;;;;5088545;28;19908;-57
2022/05/20 01:05:07;;;;;;;;;;;15.10;46.80;;;;;;5089652;28;19915;-56
2022/05/20 01:07:36;;;;;;;;;;;15.00;46.80;;;;;;5088367;28;19919;-55
2022/05/20 01:10:02;;;;;;;;;;;15.10;47.40;;;;;;5090163;28;19916;-56
2022/05/20 01:12:28;;;;;;;;;;;15.00;46.80;;;;;;5089216;28;20279;-56
2022/05/20 01:14:54;;;;;;;;;;;15.00;46.90;;;;;;5090248;28;19908;-56
2022/05/20 01:17:19;;;;;;;;;;;15.00;46.80;;;;;;5090032;28;19908;-57
2022/05/20 01:19:53;;;;;;;;;;;15.00;46.80;;;;;;5088868;28;20391;-56
2022/05/20 01:22:25;;;;;;;;;;;15.00;46.90;;;;;;5083792;28;19912;-57
2022/05/20 01:24:50;;;;;;;;;;;15.00;47.00;;;;;;5086223;28;19915;-56
2022/05/20 01:27:16;;;;;;;;;;;15.00;47.00;;;;;;5089596;28;20410;-56
2022/05/20 01:29:41;;;;;;;;;;;15.00;47.10;;;;;;5088308;28;19912;-57
2022/05/20 01:32:07;;;;;;;;;;;15.10;47.10;;;;;;5089641;28;20386;-56
2022/05/20 01:34:33;;;;;;;;;;;15.10;47.10;;;;;;5088725;28;20335;-57
2022/05/20 01:36:58;;;;;;;;;;;15.10;47.10;;;;;;5092713;28;19915;-56
2022/05/20 01:39:24;;;;;;;;;;;15.20;47.00;;;;;;5089034;28;19912;-56
2022/05/20 01:42:01;;;;;;;;;;;15.20;47.00;;;;;;5091992;28;19951;-56
2022/05/20 01:45:02;;;;;;;;;;;15.20;47.00;;;;;;5089650;28;19908;-56
2022/05/20 01:47:33;;;;;;;;;;;15.20;46.90;;;;;;5005037;28;20004;-56
2022/05/20 01:50:19;;;;;;;;;;;15.20;46.90;;;;;;5075300;28;20070;-56
2022/05/20 01:52:55;;;;;;;;;;;15.20;46.90;;;;;;5090434;28;19916;-56
2022/05/20 01:55:39;;;;;;;;;;;15.20;46.90;;;;;;5091321;28;20003;-57
2022/05/20 01:58:11;;;;;;;;;;;15.20;47.00;;;;;;5091314;28;20383;-56
2022/05/20 02:00:37;;;;;;;;;;;15.20;46.90;;;;;;5093226;28;19915;-56
2022/05/20 02:03:21;;;;;;;;;;;15.20;46.90;;;;;;5091254;28;19953;-56
2022/05/20 02:05:52;;;;;;;;;;;15.30;46.90;;;;;;5090776;28;19908;-56
2022/05/20 02:08:24;;;;;;;;;;;15.30;46.90;;;;;;5093141;28;20295;-57
2022/05/20 02:11:02;;;;;;;;;;;15.30;47.00;;;;;;5091324;28;19995;-56
2022/05/20 02:13:30;;;;;;;;;;;15.40;47.00;;;;;;5087259;28;19912;-56
2022/05/20 02:16:02;;;;;;;;;;;15.40;47.00;;;;;;5088124;28;19908;-57
2022/05/20 02:18:30;;;;;;;;;;;15.40;46.90;;;;;;5089903;28;19996;-57
2022/05/20 02:21:01;;;;;;;;;;;15.40;46.80;;;;;;5088693;28;19908;-57
2022/05/20 02:23:31;;;;;;;;;;;15.40;46.70;;;;;;5088544;28;20271;-56
2022/05/20 02:26:00;;;;;;;;;;;15.50;46.80;;;;;;5088080;28;19916;-56
2022/05/20 02:28:43;;;;;;;;;;;15.50;46.80;;;;;;5085934;28;19916;-57
2022/05/20 02:31:11;;;;;;;;;;;15.50;46.80;;;;;;5089754;28;19908;-57
2022/05/20 02:33:36;;;;;;;;;;;15.50;46.80;;;;;;5088965;28;20421;-56
2022/05/20 02:36:03;;;;;;;;;;;15.60;46.80;;;;;;5092537;28;19908;-56
2022/05/20 02:38:29;;;;;;;;;;;15.70;46.90;;;;;;5090271;28;19915;-57
2022/05/20 02:40:54;;;;;;;;;;;15.70;46.70;;;;;;5092215;28;19908;-56
2022/05/20 02:43:21;;;;;;;;;;;15.80;46.80;;;;;;5092439;28;19941;-57
2022/05/20 02:45:47;;;;;;;;;;;15.80;46.60;;;;;;5091314;28;19908;-56
2022/05/20 02:48:14;;;;;;;;;;;15.90;46.60;;;;;;5087023;28;19991;-57
2022/05/20 02:50:41;;;;;;;;;;;15.90;46.50;;;;;;5089930;28;19965;-57
2022/05/20 02:53:06;;;;;;;;;;;16.00;46.50;;;;;;5091080;28;19911;-57
2022/05/20 02:55:32;;;;;;;;;;;16.00;46.20;;;;;;5089539;28;20054;-56
2022/05/20 02:57:58;;;;;;;;;;;16.00;46.20;;;;;;5091460;28;19959;-57
2022/05/20 03:05:52;;;;;;;;;;;16.00;46.20;;;;;;5090074;28;19934;-56
2022/05/20 03:08:18;;;;;;;;;;;16.00;46.30;;;;;;5091348;28;19912;-56
2022/05/20 03:10:44;;;;;;;;;;;16.00;46.30;;;;;;5089413;28;20014;-56
2022/05/20 03:13:09;;;;;;;;;;;16.00;46.20;;;;;;5090942;28;19995;-56
2022/05/20 03:15:36;;;;;;;;;;;16.10;46.30;;;;;;5089013;28;19908;-57
2022/05/20 03:18:02;;;;;;;;;;;16.10;46.30;;;;;;5091855;28;19915;-56
2022/05/20 03:20:27;;;;;;;;;;;16.20;46.30;;;;;;5090077;28;19908;-57
2022/05/20 03:22:53;;;;;;;;;;;16.20;46.30;;;;;;5089872;28;19998;-56
2022/05/20 03:25:20;;;;;;;;;;;16.30;46.50;;;;;;5090353;28;19937;-56
2022/05/20 03:27:46;;;;;;;;;;;16.30;46.50;;;;;;5090006;28;19916;-56
2022/05/20 03:30:12;;;;;;;;;;;16.40;46.70;;;;;;5090807;28;20003;-57
2022/05/20 03:32:38;;;;;;;;;;;16.50;47.00;;;;;;5087712;28;19908;-57
2022/05/20 03:35:04;;;;;;;;;;;16.70;47.00;;;;;;5089718;28;20452;-57
2022/05/20 03:37:30;;;;;;;;;;;16.90;46.90;;;;;;5089346;28;19908;-56
2022/05/20 03:39:56;;;;;;;;;;;17.10;46.90;;;;;;5090203;28;19952;-57
2022/05/20 03:42:23;;;;;;;;;;;17.20;46.80;;;;;;5087717;28;19908;-56
2022/05/20 03:44:48;;;;;;;;;;;17.30;46.70;;;;;;5089154;28;19908;-56
2022/05/20 03:47:14;;;;;;;;;;;17.40;46.50;;;;;;5074291;28;20009;-57
2022/05/20 03:49:40;;;;;;;;;;;17.50;46.30;;;;;;5089517;28;19916;-57
2022/05/20 03:52:06;;;;;;;;;;;17.50;46.10;;;;;;5090048;28;19908;-56
2022/05/20 03:54:32;;;;;;;;;;;17.50;46.00;;;;;;5088904;28;19908;-56
2022/05/20 03:56:59;;;;;;;;;;;17.60;46.10;;;;;;5089641;28;19998;-57
2022/05/20 03:59:25;;;;;;;;;;;17.70;46.70;;;;;;5091675;28;19908;-57
2022/05/20 04:01:57;;;;;;;;;;;18.30;47.20;;;;;;5089504;28;20014;-57
2022/05/20 04:04:23;;;;;;;;;;;19.20;46.50;;;;;;5089147;28;19907;-57
2022/05/20 04:06:49;;;;;;;;;;;19.70;45.50;;;;;;5088283;28;19914;-57
2022/05/20 04:09:15;;;;;;;;;;;19.90;44.80;;;;;;5089997;28;20295;-56
2022/05/20 04:11:41;;;;;;;;;;;19.90;44.50;;;;;;5088812;28;20363;-56
2022/05/20 04:14:07;;;;;;;;;;;19.80;44.40;;;;;;5087756;28;19941;-57
2022/05/20 04:16:32;;;;;;;;;;;19.70;44.60;;;;;;5086137;28;19915;-56
2022/05/20 04:18:58;;;;;;;;;;;19.70;44.80;;;;;;5089456;28;19908;-57
2022/05/20 04:21:23;;;;;;;;;;;19.70;44.20;;;;;;5091325;28;19908;-56
2022/05/20 04:23:49;;;;;;;;;;;19.70;44.10;;;;;;5088996;28;20397;-56
2022/05/20 04:26:14;;;;;;;;;;;19.50;44.00;;;;;;5089552;28;20007;-57
2022/05/20 04:28:40;;;;;;;;;;;19.30;44.00;;;;;;5089637;28;19924;-56
2022/05/20 04:31:06;;;;;;;;;;;19.00;44.40;;;;;;5087526;28;19912;-57
2022/05/20 04:33:32;;;;;;;;;;;18.70;44.50;;;;;;5070030;28;20384;-56
2022/05/20 04:35:58;;;;;;;;;;;18.50;44.70;;;;;;5088704;28;20040;-56
2022/05/20 04:38:23;;;;;;;;;;;18.30;44.90;;;;;;5089702;28;19908;-56
2022/05/20 04:46:56;;;;;;;;;;;18.20;45.10;;;;;;5089126;28;19916;-56
2022/05/20 04:47:01;;;;;;;;;;;17.90;45.50;;;;;;5087821;28;19922;-56
2022/05/20 04:49:10;;;;;;;;;;;17.80;45.50;;;;;;5068682;28;20264;-57
2022/05/20 04:51:36;;;;;;;;;;;17.70;45.60;;;;;;5083757;28;19908;-57
2022/05/20 04:56:47;;;;;;;;;;;17.60;45.70;;;;;;5083574;28;19915;-57
2022/05/20 04:59:12;;;;;;;;;;;17.50;45.80;;;;;;5090135;28;19912;-57
2022/05/20 05:01:39;;;;;;;;;;;17.50;46.40;;;;;;5092476;28;19943;-57
2022/05/20 05:04:06;;;;;;;;;;;17.40;46.80;;;;;;5090905;28;19908;-56
2022/05/20 05:06:31;;;;;;;;;;;17.40;46.90;;;;;;5087725;28;19999;-56
2022/05/20 05:08:57;;;;;;;;;;;17.40;47.20;;;;;;5091070;28;20011;-56
2022/05/20 05:11:22;;;;;;;;;;;17.30;47.10;;;;;;5092100;28;19908;-56
2022/05/20 05:13:48;;;;;;;;;;;17.30;46.90;;;;;;5092630;28;20325;-57
2022/05/20 05:16:14;;;;;;;;;;;17.30;46.80;;;;;;5093475;28;20356;-56
2022/05/20 05:18:39;;;;;;;;;;;17.30;46.80;;;;;;5091950;28;19912;-56
2022/05/20 05:21:05;;;;;;;;;;;17.20;46.80;;;;;;5093121;28;20348;-57
2022/05/20 05:23:31;;;;;;;;;;;17.20;46.70;;;;;;5090847;28;19916;-56
2022/05/20 05:25:57;;;;;;;;;;;17.20;46.90;;;;;;5089183;28;20356;-57
2022/05/20 05:28:24;;;;;;;;;;;17.20;47.10;;;;;;5093212;28;19965;-56
2022/05/20 05:30:50;;;;;;;;;;;17.20;47.20;;;;;;5090972;28;20446;-56
2022/05/20 05:33:17;;;;;;;;;;;17.20;47.40;;;;;;5089571;28;19915;-56
2022/05/20 05:35:42;;;;;;;;;;;17.20;47.50;;;;;;5091742;28;20325;-56
2022/05/20 05:38:08;;;;;;;;;;;17.20;47.70;;;;;;5091280;28;19930;-57
2022/05/20 05:40:34;;;;;;;;;;;17.10;48.10;;;;;;5090732;28;19908;-57
2022/05/20 05:43:00;;;;;;;;;;;17.10;48.10;;;;;;5087600;28;20417;-57
2022/05/20 05:45:26;;;;;;;;;;;17.00;48.50;;;;;;5093966;28;19989;-56
2022/05/20 05:47:57;;;;;;;;;;;16.90;48.70;;;;;;5089663;28;20257;-57
2022/05/20 05:50:22;;;;;;;;;;;16.90;49.10;;;;;;5089030;28;19940;-56
2022/05/20 05:52:55;;;;;;;;;;;16.80;49.50;;;;;;5088923;28;19962;-57
2022/05/20 05:55:20;;;;;;;;;;;16.70;49.90;;;;;;5081612;28;19916;-56
2022/05/20 05:57:46;;;;;;;;;;;16.60;50.00;;;;;;5087455;28;19908;-56
2022/05/20 06:00:12;;;;;;;;;;;16.50;50.80;;;;;;5087717;28;19912;-56
2022/05/20 06:02:38;;;;;;;;;;;16.40;51.10;;;;;;5085923;28;19912;-57
2022/05/20 06:05:03;;;;;;;;;;;16.40;52.00;;;;;;5083989;28;20290;-57
2022/05/20 06:07:29;;;;;;;;;;;16.30;52.40;;;;;;5083199;28;19943;-57
2022/05/20 06:09:54;;;;;;;;;;;16.30;53.70;;;;;;5082316;28;20009;-56
2022/05/20 06:12:20;;;;;;;;;;;16.30;53.60;;;;;;5093469;28;19912;-57
2022/05/20 06:14:45;;;;;;;;;;;16.20;53.90;;;;;;5083730;28;19997;-57
2022/05/20 06:17:14;;;;;;;;;;;16.20;54.10;;;;;;5081313;28;19945;-56
2022/05/20 06:19:40;;;;;;;;;;;16.20;54.00;;;;;;5087384;28;19908;-57
2022/05/20 06:22:06;;;;;;;;;;;16.20;54.00;;;;;;5079567;28;20025;-57
2022/05/20 06:24:32;;;;;;;;;;;16.10;54.20;;;;;;5078889;28;20026;-56
2022/05/20 06:26:57;;;;;;;;;;;16.10;54.30;;;;;;5074111;28;20017;-57
2022/05/20 06:29:23;;;;;;;;;;;16.10;54.50;;;;;;5080345;28;19920;-56
2022/05/20 06:31:49;;;;;;;;;;;16.10;54.70;;;;;;5082123;28;20030;-54
2022/05/20 06:34:14;;;;;;;;;;;16.00;54.80;;;;;;5081615;28;19912;-55
2022/05/20 06:39:48;;;;;;;;;;;16.00;55.40;;;;;;5088289;28;19918;-57
2022/05/20 06:42:14;;;;;;;;;;;16.00;55.20;;;;;;5094868;28;19911;-57
2022/05/20 06:44:40;;;;;;;;;;;16.00;55.60;;;;;;5088623;28;19918;-57
2022/05/20 06:47:06;;;;;;;;;;;16.00;55.80;;;;;;5086962;28;19931;-57
2022/05/20 06:49:31;;;;;;;;;;;16.00;55.70;;;;;;5088774;28;20430;-58
2022/05/20 06:52:00;;;;;;;;;;;16.10;56.00;;;;;;5086055;28;20352;-57
2022/05/20 06:54:26;;;;;;;;;;;16.10;56.00;;;;;;5087942;28;19914;-57
2022/05/20 06:56:51;;;;;;;;;;;16.10;56.00;;;;;;5082157;28;19916;-57
2022/05/20 06:59:17;;;;;;;;;;;16.10;56.30;;;;;;5081093;28;20280;-57
2022/05/20 07:01:42;;;;;;;;;;;16.10;56.70;;;;;;5077458;28;19912;-56
2022/05/20 07:04:08;;;;;;;;;;;16.10;56.70;;;;;;5076169;28;19916;-56
2022/05/20 07:06:34;;;;;;;;;;;16.10;57.00;;;;;;5077085;28;19932;-56
2022/05/20 07:09:00;;;;;;;;;;;16.00;57.10;;;;;;5070189;28;19943;-57
2022/05/20 07:11:25;;;;;;;;;;;16.00;57.30;;;;;;5074569;28;20548;-56
2022/05/20 07:13:54;;;;;;;;;;;16.00;57.60;;;;;;5073119;28;19919;-57
2022/05/20 07:16:20;;;;;;;;;;;15.90;58.00;;;;;;5077949;28;19924;-57
2022/05/20 07:18:46;;;;;;;;;;;15.90;58.40;;;;;;5075306;28;19927;-56
2022/05/20 07:21:12;;;;;;;;;;;15.80;58.70;;;;;;5075904;28;19912;-56
2022/05/20 07:23:37;;;;;;;;;;;15.80;59.30;;;;;;5075698;28;19912;-55
2022/05/20 07:26:03;;;;;;;;;;;15.80;59.40;;;;;;5076699;28;19920;-55
2022/05/20 07:28:29;;;;;;;;;;;15.80;59.80;;;;;;5067975;28;19930;-56
2022/05/20 07:30:55;;;;;;;;;;;15.80;60.30;;;;;;5071029;28;19923;-56
2022/05/20 07:33:20;;;;;;;;;;;15.80;60.90;;;;;;5069147;28;19929;-55
2022/05/20 07:35:46;;;;;;;;;;;15.90;60.80;;;;;;5071012;28;21667;-54
2022/05/20 07:38:12;;;;;;;;;;;16.00;61.00;;;;;;5071974;28;19919;-55
2022/05/20 07:40:37;;;;;;;;;;;16.00;60.80;;;;;;5066811;28;19916;-56
2022/05/20 07:43:03;;;;;;;;;;;16.10;60.70;;;;;;5064623;28;19912;-55
2022/05/20 07:45:28;;;;;;;;;;;16.20;60.70;;;;;;5075152;28;19916;-55
2022/05/20 07:47:54;;;;;;;;;;;16.40;60.70;;;;;;5073478;28;19947;-56
2022/05/20 07:50:20;;;;;;;;;;;16.50;60.70;;;;;;5075453;28;20037;-56
2022/05/20 07:55:34;;;;;;;;;;;16.70;60.70;;;;;;5076605;28;19923;-56
2022/05/20 07:58:05;;;;;;;;;;;16.70;59.90;;;;;;5066510;28;19912;-57
2022/05/20 08:00:31;;;;;;;;;;;16.80;60.10;;;;;;5069789;28;19948;-56
2022/05/20 08:02:59;;;;;;;;;;;16.80;60.10;;;;;;5074115;28;20362;-56
2022/05/20 08:05:25;;;;;;;;;;;16.90;60.00;;;;;;5071453;28;19981;-56
2022/05/20 08:07:51;;;;;;;;;;;16.90;59.80;;;;;;5069052;28;19919;-55
2022/05/20 08:10:18;;;;;;;;;;;17.00;60.00;;;;;;5071011;28;19916;-56
2022/05/20 08:12:44;;;;;;;;;;;17.10;60.30;;;;;;5073007;28;19912;-56
2022/05/20 08:15:10;;;;;;;;;;;17.20;60.30;;;;;;5067192;28;19916;-57
2022/05/20 08:17:39;;;;;;;;;;;17.20;60.20;;;;;;5074158;28;19912;-57
2022/05/20 08:20:07;;;;;;;;;;;17.30;60.20;;;;;;5071143;28;19916;-56
2022/05/20 08:22:32;;;;;;;;;;;17.30;60.40;;;;;;5067606;28;19916;-56
2022/05/20 08:24:58;;;;;;;;;;;17.30;60.40;;;;;;5065005;28;19964;-57
2022/05/20 08:27:25;;;;;;;;;;;17.30;60.40;;;;;;5076053;28;19911;-57
2022/05/20 08:29:51;;;;;;;;;;;17.40;60.40;;;;;;5072453;28;21756;-57
2022/05/20 08:32:17;;;;;;;;;;;17.40;60.30;;;;;;5072433;28;19916;-56
2022/05/20 08:34:43;;;;;;;;;;;17.50;60.60;;;;;;5073838;28;20392;-56
2022/05/20 08:37:09;;;;;;;;;;;17.50;60.50;;;;;;5075074;28;20637;-56
2022/05/20 08:39:35;;;;;;;;;;;17.50;60.50;;;;;;5073483;28;20002;-56
2022/05/20 08:42:01;;;;;;;;;;;17.50;60.50;;;;;;5074373;28;20596;-57
2022/05/20 08:44:27;;;;;;;;;;;17.60;60.50;;;;;;5076806;28;19999;-57
2022/05/20 08:47:06;;;;;;;;;;;17.60;60.50;;;;;;5067477;28;19916;-57
2022/05/20 08:49:32;;;;;;;;;;;17.60;60.40;;;;;;5075152;28;20275;-56
2022/05/20 08:51:57;;;;;;;;;;;17.60;60.30;;;;;;5067285;28;19916;-56
2022/05/20 08:54:23;;;;;;;;;;;17.60;60.40;;;;;;5063565;28;19916;-56
2022/05/20 08:56:49;;;;;;;;;;;17.60;60.60;;;;;;5064427;28;19927;-58
2022/05/20 08:59:18;;;;;;;;;;;17.70;60.40;;;;;;5063062;28;19969;-57
2022/05/20 09:01:45;;;;;;;;;;;17.80;60.50;;;;;;5061737;28;20025;-57
2022/05/20 09:04:12;;;;;;;;;;;17.90;60.60;;;;;;5074527;28;20366;-57
2022/05/20 09:06:56;;;;;;;;;;;18.00;60.40;;;;;;5073048;28;19989;-57
2022/05/20 09:09:22;;;;;;;;;;;18.10;60.10;;;;;;5070199;28;19919;-57
2022/05/20 09:11:53;;;;;;;;;;;18.20;60.10;;;;;;5078092;28;19969;-57
2022/05/20 09:17:14;;;;;;;;;;;18.30;60.00;;;;;;5064279;28;19923;-57
2022/05/20 09:19:53;;;;;;;;;;;18.40;59.60;;;;;;5071863;28;19911;-58
2022/05/20 09:22:24;;;;;;;;;;;18.50;59.60;;;;;;5070990;28;19915;-58
2022/05/20 09:24:49;;;;;;;;;;;18.60;59.60;;;;;;5073715;28;19991;-58
2022/05/20 09:27:20;;;;;;;;;;;18.70;59.60;;;;;;5062609;28;20012;-58
2022/05/20 09:29:55;;;;;;;;;;;18.80;59.50;;;;;;5071870;28;19918;-57
2022/05/20 09:32:21;;;;;;;;;;;18.90;59.40;;;;;;5070609;28;19974;-57
2022/05/20 09:34:53;;;;;;;;;;;19.00;59.10;;;;;;5063546;28;20006;-57
2022/05/20 09:37:19;;;;;;;;;;;19.10;59.20;;;;;;5050332;28;20406;-55
2022/05/20 09:39:47;;;;;;;;;;;19.10;59.30;;;;;;5061456;28;19923;-56
2022/05/20 09:42:15;;;;;;;;;;;19.20;59.00;;;;;;5072769;28;19920;-54
2022/05/20 09:44:42;;;;;;;;;;;19.20;58.90;;;;;;5072948;28;19965;-56
2022/05/20 09:47:15;;;;;;;;;;;19.20;58.70;;;;;;5064382;28;19916;-56
2022/05/20 09:49:44;;;;;;;;;;;19.20;58.70;;;;;;5069834;28;20010;-56
2022/05/20 09:52:15;;;;;;;;;;;19.10;58.50;;;;;;5072550;28;19942;-56
2022/05/20 09:54:41;;;;;;;;;;;19.10;58.70;;;;;;5069994;28;19938;-57
2022/05/20 09:57:11;;;;;;;;;;;19.10;58.50;;;;;;5065470;28;19916;-57
2022/05/20 09:59:36;;;;;;;;;;;19.00;59.20;;;;;;5074391;28;19912;-58
2022/05/20 10:02:02;;;;;;;;;;;19.00;58.80;;;;;;5075858;28;20295;-56
2022/05/20 10:04:47;;;;;;;;;;;18.90;59.00;;;;;;5071344;28;19919;-58
2022/05/20 10:07:16;;;;;;;;;;;19.00;59.10;;;;;;5031200;28;19972;-58
2022/05/20 10:09:45;;;;;;;;;;;18.90;59.30;;;;;;5074410;28;19956;-57
2022/05/20 10:12:17;;;;;;;;;;;18.90;59.50;;;;;;5076005;28;19912;-58
2022/05/20 10:14:45;;;;;;;;;;;19.00;59.60;;;;;;5080313;28;19911;-57
2022/05/20 10:17:13;;;;;;;;;;;19.10;59.80;;;;;;5080771;28;19969;-58
2022/05/20 10:19:39;;;;;;;;;;;19.20;59.50;;;;;;5073922;28;20392;-58
2022/05/20 10:22:17;;;;;;;;;;;19.30;59.70;;;;;;5073490;28;19918;-58
2022/05/20 10:24:55;;;;;;;;;;;19.40;59.50;;;;;;5081319;28;20298;-57
2022/05/20 10:27:27;;;;;;;;;;;19.50;59.10;;;;;;5072117;28;19922;-58
2022/05/20 10:33:12;;;;;;;;;;;19.70;59.00;;;;;;5075344;28;19923;-58
2022/05/20 10:36:13;;;;;;;;;;;19.70;59.00;;;;;;5035635;28;19913;-58
2022/05/20 10:38:51;;;;;;;;;;;19.80;58.80;;;;;;4998706;28;19913;-58
2022/05/20 10:41:26;;;;;;;;;;;19.80;58.60;;;;;;5064669;28;19916;-57
2022/05/20 10:50:01;;;;;;;;;;;20.00;58.20;;;;;;5079507;28;19922;-58
2022/05/20 10:52:45;;;;;;;;;;;20.10;58.20;;;;;;5075201;28;19994;-58
2022/05/20 10:55:16;;;;;;;;;;;20.10;58.00;;;;;;5068942;28;20397;-59
2022/05/20 10:57:44;;;;;;;;;;;20.10;58.10;;;;;;5068765;28;19912;-57
2022/05/20 11:00:13;;;;;;;;;;;20.10;58.10;;;;;;5070334;28;20039;-58
2022/05/20 11:02:53;;;;;;;;;;;20.10;58.00;;;;;;5070514;28;20382;-58
2022/05/20 11:05:38;;;;;;;;;;;20.00;57.80;;;;;;5075667;28;20322;-57
2022/05/20 11:08:06;;;;;;;;;;;19.90;57.90;;;;;;5074514;28;19920;-58
2022/05/20 11:10:45;;;;;;;;;;;19.80;58.00;;;;;;5070383;28;19945;-57
2022/05/20 11:13:11;;;;;;;;;;;19.70;58.10;;;;;;5078055;28;19912;-58
2022/05/20 11:15:36;;;;;;;;;;;19.70;58.30;;;;;;5075667;28;19916;-57
2022/05/20 11:18:11;;;;;;;;;;;19.60;58.90;;;;;;5077539;28;19916;-56
2022/05/20 11:21:03;;;;;;;;;;;19.50;58.90;;;;;;5078483;28;19908;-58
2022/05/20 11:23:38;;;;;;;;;;;19.50;58.70;;;;;;5035508;28;19916;-57
2022/05/20 11:26:14;;;;;;;;;;;19.40;58.80;;;;;;5076881;28;20273;-57
2022/05/20 11:29:12;;;;;;;;;;;19.40;59.20;;;;;;5075205;28;19931;-58
2022/05/20 11:31:41;;;;;;;;;;;19.40;59.50;;;;;;5007527;28;19916;-56
2022/05/20 11:34:06;;;;;;;;;;;19.50;59.40;;;;;;5067836;28;19919;-57
2022/05/20 11:36:52;;;;;;;;;;;19.50;59.40;;;;;;5074989;28;19916;-58
2022/05/20 11:39:17;;;;;;;;;;;19.50;59.50;;;;;;5076589;28;19911;-58
2022/05/20 11:41:46;;;;;;;;;;;19.60;59.50;;;;;;5076756;28;19915;-57
2022/05/20 11:44:20;;;;;;;;;;;19.60;59.40;;;;;;5081414;28;20015;-57
2022/05/20 11:47:04;;;;;;;;;;;19.70;59.40;;;;;;5067841;28;19948;-58
2022/05/20 11:49:35;;;;;;;;;;;19.80;59.00;;;;;;5081506;28;19920;-57
2022/05/20 11:52:06;;;;;;;;;;;20.00;58.90;;;;;;5070384;28;19916;-58
2022/05/20 11:54:32;;;;;;;;;;;20.10;58.90;;;;;;5073063;28;19916;-56
2022/05/20 11:56:58;;;;;;;;;;;20.20;59.30;;;;;;5076384;28;19916;-58
2022/05/20 11:59:26;;;;;;;;;;;20.30;59.10;;;;;;5069150;28;20367;-56
2022/05/20 12:01:55;;;;;;;;;;;20.30;58.80;;;;;;5068258;28;20356;-58
2022/05/20 12:04:22;;;;;;;;;;;20.40;58.70;;;;;;5076601;28;19923;-57
2022/05/20 12:07:08;;;;;;;;;;;20.40;58.50;;;;;;5078776;28;19916;-58
2022/05/20 12:09:33;;;;;;;;;;;20.50;58.60;;;;;;5071707;28;19920;-58
2022/05/20 12:12:31;;;;;;;;;;;20.50;58.80;;;;;;5076937;28;19912;-57
2022/05/20 12:14:56;;;;;;;;;;;20.50;58.90;;;;;;5028531;28;19916;-58
2022/05/20 12:17:33;;;;;;;;;;;20.60;58.90;;;;;;5078348;28;20504;-58
2022/05/20 12:25:37;;;;;;;;;;;20.70;59.00;;;;;;5075151;28;19970;-57
2022/05/20 12:28:05;;;;;;;;;;;20.90;58.80;;;;;;5075667;28;19924;-57
2022/05/20 12:30:44;;;;;;;;;;;20.90;58.60;;;;;;5075265;28;19915;-58
2022/05/20 12:33:26;;;;;;;;;;;21.00;58.60;;;;;;5068460;28;20210;-58
2022/05/20 12:36:21;;;;;;;;;;;21.10;58.50;;;;;;5073741;28;20092;-57
2022/05/20 12:38:47;;;;;;;;;;;21.10;58.40;;;;;;5066154;28;20507;-56
2022/05/20 12:41:20;;;;;;;;;;;21.20;58.40;;;;;;5080130;28;19927;-56
2022/05/20 12:43:54;;;;;;;;;;;21.20;58.70;;;;;;5076058;28;19966;-57
2022/05/20 12:46:23;;;;;;;;;;;21.30;58.80;;;;;;5072951;28;19916;-56
2022/05/20 12:48:49;;;;;;;;;;;21.30;58.80;;;;;;5069717;28;19994;-58
2022/05/20 12:51:15;;;;;;;;;;;21.30;58.70;;;;;;5070140;28;19923;-58
2022/05/20 12:53:40;;;;;;;;;;;21.40;59.30;;;;;;5073502;28;19912;-58
2022/05/20 12:56:23;;;;;;;;;;;21.30;58.70;;;;;;5069762;28;19916;-58
2022/05/20 12:58:48;;;;;;;;;;;21.40;58.80;;;;;;5066101;28;20015;-59
2022/05/20 13:01:14;;;;;;;;;;;21.30;58.40;;;;;;5067983;28;19916;-58
2022/05/20 13:03:42;;;;;;;;;;;21.30;58.20;;;;;;5076288;28;19927;-58
2022/05/20 13:06:37;;;;;;;;;;;21.40;58.40;;;;;;5071575;28;19916;-58
2022/05/20 13:09:04;;;;;;;;;;;21.30;58.70;;;;;;5050262;28;20405;-58
2022/05/20 13:11:40;;;;;;;;;;;21.30;58.60;;;;;;5069901;28;19944;-56
2022/05/20 13:14:10;;;;;;;;;;;21.30;58.70;;;;;;5065476;28;19923;-57
2022/05/20 13:16:36;;;;;;;;;;;21.20;58.40;;;;;;5074617;28;20494;-56
2022/05/20 13:19:04;;;;;;;;;;;21.30;58.20;;;;;;5070826;28;20006;-56
2022/05/20 13:21:35;;;;;;;;;;;21.30;58.30;;;;;;5066660;28;19919;-57
2022/05/20 13:24:11;;;;;;;;;;;21.20;58.30;;;;;;5061632;28;19951;-57
2022/05/20 13:26:37;;;;;;;;;;;21.20;58.50;;;;;;5073896;28;19916;-57
2022/05/20 13:29:10;;;;;;;;;;;21.20;58.80;;;;;;5079268;28;20287;-56
2022/05/20 13:31:36;;;;;;;;;;;21.20;58.50;;;;;;5085356;28;19912;-57
2022/05/20 13:34:01;;;;;;;;;;;21.20;58.50;;;;;;5076097;28;19938;-57
2022/05/20 13:36:32;;;;;;;;;;;21.20;58.80;;;;;;5080394;28;19916;-57
2022/05/20 13:39:01;;;;;;;;;;;21.20;58.60;;;;;;5077545;28;20317;-56
2022/05/20 13:41:30;;;;;;;;;;;21.20;58.60;;;;;;5074011;28;19966;-57
2022/05/20 13:43:57;;;;;;;;;;;21.20;58.30;;;;;;5071984;28;19916;-57
2022/05/20 13:49:13;;;;;;;;;;;21.20;58.00;;;;;;5076007;28;19930;-57
2022/05/20 13:51:48;;;;;;;;;;;21.20;57.80;;;;;;5083001;28;20384;-57
2022/05/20 13:54:18;;;;;;;;;;;21.30;57.80;;;;;;5079536;28;20608;-57
2022/05/20 13:56:46;;;;;;;;;;;21.30;57.70;;;;;;5071258;28;20521;-57
2022/05/20 13:59:24;;;;;;;;;;;21.30;57.80;;;;;;5074262;28;20368;-57
2022/05/20 14:01:51;;;;;;;;;;;21.30;57.10;;;;;;5072460;28;19923;-57
2022/05/20 14:04:17;;;;;;;;;;;21.40;56.80;;;;;;5076852;28;20010;-56
2022/05/20 14:06:43;;;;;;;;;;;21.40;56.40;;;;;;5077585;28;19917;-57
2022/05/20 14:09:09;;;;;;;;;;;21.40;56.50;;;;;;5074721;28;19916;-57
2022/05/20 14:11:46;;;;;;;;;;;21.40;56.30;;;;;;5072377;28;19951;-57
2022/05/20 14:14:14;;;;;;;;;;;21.40;56.30;;;;;;5071487;28;20006;-58
2022/05/20 14:16:42;;;;;;;;;;;21.40;56.20;;;;;;5073012;28;20386;-57
2022/05/20 14:19:15;;;;;;;;;;;21.30;56.10;;;;;;5079698;28;19955;-57
2022/05/20 14:21:42;;;;;;;;;;;21.40;55.80;;;;;;5079958;28;19916;-57
2022/05/20 14:24:16;;;;;;;;;;;21.30;55.60;;;;;;5078438;28;19922;-57
2022/05/20 14:26:41;;;;;;;;;;;21.30;55.60;;;;;;5083306;28;20686;-57
2022/05/20 14:29:18;;;;;;;;;;;21.20;55.40;;;;;;5081153;28;20010;-56
2022/05/20 14:31:48;;;;;;;;;;;21.20;55.50;;;;;;5080788;28;19916;-58
2022/05/20 14:34:15;;;;;;;;;;;21.10;55.50;;;;;;5083820;28;19927;-58
2022/05/20 14:36:41;;;;;;;;;;;21.10;55.90;;;;;;5078685;28;19929;-57
2022/05/20 14:39:09;;;;;;;;;;;21.10;55.80;;;;;;5074173;28;20377;-57
2022/05/20 14:41:35;;;;;;;;;;;21.00;55.30;;;;;;5073951;28;19939;-57
2022/05/20 14:44:06;;;;;;;;;;;20.90;55.00;;;;;;5071487;28;20375;-57
2022/05/20 14:49:41;;;;;;;;;;;20.80;55.10;;;;;;5074859;28;19938;-57
2022/05/20 14:52:06;;;;;;;;;;;20.80;54.80;;;;;;5073040;28;19957;-58
2022/05/20 14:54:39;;;;;;;;;;;20.70;55.20;;;;;;5073643;28;19943;-57
2022/05/20 14:57:24;;;;;;;;;;;20.70;55.90;;;;;;5078304;28;19915;-57
2022/05/20 15:00:11;;;;;;;;;;;20.70;55.90;;;;;;5076469;28;19975;-58
2022/05/20 15:02:37;;;;;;;;;;;20.60;55.30;;;;;;5071919;28;20048;-58
2022/05/20 15:05:02;;;;;;;;;;;20.60;55.30;;;;;;5063131;28;19995;-55
2022/05/20 15:07:28;;;;;;;;;;;20.60;55.50;;;;;;5058339;28;19923;-55